createdAt,value
2024-02-29T00:00:02.304Z,9.49
2024-02-29T00:00:34.358Z,9.54
2024-02-29T00:01:06.904Z,9.56
2024-02-29T00:01:41.573Z,9.54
2024-02-29T00:02:13.992Z,9.53
2024-02-29T00:02:45.995Z,9.50
2024-02-29T00:03:17.926Z,9.37
2024-02-29T00:03:50.160Z,9.38
2024-02-29T00:04:25.945Z,9.42
2024-02-29T00:04:57.864Z,9.39
2024-02-29T00:05:29.893Z,9.41
2024-02-29T00:06:01.928Z,9.36
2024-02-29T00:06:33.981Z,9.33
2024-02-29T00:07:06.356Z,9.29
2024-02-29T00:07:39.738Z,9.34
2024-02-29T00:08:12.084Z,9.36
2024-02-29T00:08:43.995Z,9.36
2024-02-29T00:09:15.922Z,9.37
2024-02-29T00:09:47.914Z,9.38
2024-02-29T00:10:20.265Z,9.35
2024-02-29T00:10:52.251Z,9.36
2024-02-29T00:11:24.198Z,9.35
2024-02-29T00:11:56.643Z,9.35
2024-02-29T00:12:28.588Z,9.30
2024-02-29T00:13:00.922Z,9.29
2024-02-29T00:13:32.887Z,9.30
2024-02-29T00:14:04.838Z,9.34
2024-02-29T00:14:38.524Z,9.32
2024-02-29T00:15:11.814Z,9.29
2024-02-29T00:15:44.060Z,9.31
2024-02-29T00:16:16.171Z,9.32
2024-02-29T00:16:48.122Z,9.33
2024-02-29T00:17:21.298Z,9.31
2024-02-29T00:17:53.326Z,9.29
2024-02-29T00:18:25.388Z,9.31
2024-02-29T00:18:57.355Z,9.31
2024-02-29T00:19:29.447Z,9.32
2024-02-29T00:20:01.478Z,9.27
2024-02-29T00:20:36.012Z,9.22
2024-02-29T00:21:08.057Z,9.22
2024-02-29T00:21:42.125Z,9.15
2024-02-29T00:22:14.397Z,9.18
2024-02-29T00:22:47.869Z,9.20
2024-02-29T00:23:22.443Z,9.20
2024-02-29T00:23:54.362Z,9.19
2024-02-29T00:24:26.583Z,9.20
2024-02-29T00:24:58.577Z,9.21
2024-02-29T00:25:30.525Z,9.22
2024-02-29T00:26:02.438Z,9.27
2024-02-29T00:26:34.376Z,9.26
2024-02-29T00:27:06.891Z,9.23
2024-02-29T00:27:39.034Z,9.20
2024-02-29T00:28:11.124Z,9.21
2024-02-29T00:28:43.079Z,9.19
2024-02-29T00:29:15.084Z,9.17
2024-02-29T00:29:47.001Z,9.18
2024-02-29T00:30:18.972Z,9.11
2024-02-29T00:30:51.224Z,9.08
2024-02-29T00:31:23.651Z,9.04
2024-02-29T00:32:02.121Z,9.04
2024-02-29T00:32:35.335Z,9.04
2024-02-29T00:33:07.449Z,9.05
2024-02-29T00:33:41.167Z,9.06
2024-02-29T00:34:13.710Z,9.12
2024-02-29T00:34:46.128Z,9.12
2024-02-29T00:35:18.174Z,9.05
2024-02-29T00:35:55.380Z,9.05
2024-02-29T00:36:30.727Z,9.04
2024-02-29T00:37:02.894Z,9.01
2024-02-29T00:37:34.812Z,9.06
2024-02-29T00:38:06.764Z,9.09
2024-02-29T00:38:39.918Z,9.13
2024-02-29T00:39:15.231Z,9.08
2024-02-29T00:39:47.836Z,9.13
2024-02-29T00:40:21.815Z,9.11
2024-02-29T00:40:54.104Z,9.12
2024-02-29T00:41:26.113Z,9.10
2024-02-29T00:41:58.456Z,9.10
2024-02-29T00:42:30.454Z,9.08
2024-02-29T00:43:03.679Z,9.07
2024-02-29T00:43:35.662Z,9.06
2024-02-29T00:44:07.910Z,9.11
2024-02-29T00:44:39.837Z,9.08
2024-02-29T00:45:11.776Z,8.99
2024-02-29T00:45:46.439Z,9.01
2024-02-29T00:46:18.425Z,9.02
2024-02-29T00:46:50.414Z,9.00
2024-02-29T00:47:22.331Z,9.06
2024-02-29T00:47:56.421Z,9.04
2024-02-29T00:48:28.683Z,9.08
2024-02-29T00:49:00.749Z,9.06
2024-02-29T00:49:33.338Z,9.09
2024-02-29T00:50:05.868Z,9.08
2024-02-29T00:50:40.740Z,9.12
2024-02-29T00:51:12.727Z,9.04
2024-02-29T00:51:47.668Z,9.01
2024-02-29T00:52:19.680Z,8.95
2024-02-29T00:52:54.049Z,9.02
2024-02-29T00:53:26.030Z,9.03
2024-02-29T00:53:57.932Z,9.03
2024-02-29T00:54:30.009Z,9.01
2024-02-29T00:55:03.568Z,8.99
2024-02-29T00:55:35.561Z,9.02
2024-02-29T00:56:07.532Z,9.07
2024-02-29T00:56:39.537Z,9.08
2024-02-29T00:57:11.471Z,9.08
2024-02-29T00:57:45.458Z,9.07
2024-02-29T00:58:17.421Z,9.08
2024-02-29T00:58:49.443Z,9.05
2024-02-29T00:59:21.382Z,9.02
2024-02-29T00:59:53.323Z,9.06
2024-02-29T01:00:25.259Z,9.05
2024-02-29T01:00:57.596Z,9.03
2024-02-29T01:01:29.746Z,9.02
2024-02-29T01:02:02.317Z,9.00
2024-02-29T01:02:34.346Z,9.01
2024-02-29T01:03:06.383Z,9.02
2024-02-29T01:03:38.498Z,9.04
2024-02-29T01:04:10.882Z,9.09
2024-02-29T01:04:42.881Z,9.10
2024-02-29T01:05:16.009Z,9.07
2024-02-29T01:05:47.946Z,9.07
2024-02-29T01:06:19.859Z,9.05
2024-02-29T01:06:51.878Z,9.03
2024-02-29T01:07:23.810Z,9.05
2024-02-29T01:07:56.015Z,9.06
2024-02-29T01:08:27.935Z,9.08
2024-02-29T01:08:59.913Z,9.04
2024-02-29T01:09:31.992Z,9.03
2024-02-29T01:10:08.487Z,9.04
2024-02-29T01:10:40.481Z,9.01
2024-02-29T01:11:12.640Z,9.01
2024-02-29T01:11:44.670Z,9.02
2024-02-29T01:12:16.688Z,9.00
2024-02-29T01:12:48.672Z,8.96
2024-02-29T01:13:20.742Z,8.98
2024-02-29T01:13:52.656Z,8.99
2024-02-29T01:14:24.569Z,9.00
2024-02-29T01:14:56.593Z,9.02
2024-02-29T01:15:28.568Z,9.03
2024-02-29T01:16:00.552Z,9.04
2024-02-29T01:16:32.563Z,9.00
2024-02-29T01:17:04.502Z,8.91
2024-02-29T01:17:36.887Z,8.97
2024-02-29T01:18:12.038Z,8.96
2024-02-29T01:18:44.022Z,9.01
2024-02-29T01:19:16.293Z,8.97
2024-02-29T01:19:48.357Z,9.00
2024-02-29T01:20:20.537Z,9.02
2024-02-29T01:20:52.461Z,9.02
2024-02-29T01:21:24.385Z,9.04
2024-02-29T01:21:56.507Z,9.04
2024-02-29T01:22:28.559Z,9.02
2024-02-29T01:23:00.536Z,9.01
2024-02-29T01:23:32.469Z,8.96
2024-02-29T01:24:04.551Z,8.98
2024-02-29T01:24:36.991Z,8.96
2024-02-29T01:25:09.434Z,8.96
2024-02-29T01:25:41.549Z,8.95
2024-02-29T01:26:13.537Z,8.94
2024-02-29T01:26:45.540Z,8.96
2024-02-29T01:27:17.514Z,8.98
2024-02-29T01:27:49.517Z,9.02
2024-02-29T01:28:21.550Z,9.00
2024-02-29T01:28:53.541Z,8.99
2024-02-29T01:29:26.971Z,9.00
2024-02-29T01:29:58.980Z,9.01
2024-02-29T01:30:31.015Z,9.02
2024-02-29T01:31:03.525Z,9.03
2024-02-29T01:31:35.537Z,9.02
2024-02-29T01:32:15.754Z,9.02
2024-02-29T01:32:54.154Z,8.99
2024-02-29T01:33:26.257Z,8.98
2024-02-29T01:33:58.366Z,8.92
2024-02-29T01:34:30.330Z,8.90
2024-02-29T01:35:02.436Z,8.91
2024-02-29T01:35:34.359Z,8.95
2024-02-29T01:36:08.009Z,8.95
2024-02-29T01:36:42.730Z,8.96
2024-02-29T01:37:15.326Z,8.90
2024-02-29T01:37:47.540Z,8.92
2024-02-29T01:38:19.456Z,8.93
2024-02-29T01:38:51.374Z,8.94
2024-02-29T01:39:23.329Z,8.97
2024-02-29T01:39:55.326Z,8.98
2024-02-29T01:40:27.352Z,8.90
2024-02-29T01:40:59.361Z,8.92
2024-02-29T01:41:31.572Z,8.97
2024-02-29T01:42:04.193Z,9.00
2024-02-29T01:42:36.177Z,9.00
2024-02-29T01:43:08.286Z,8.99
2024-02-29T01:43:40.237Z,8.97
2024-02-29T01:44:12.184Z,8.96
2024-02-29T01:45:04.464Z,8.88
2024-02-29T01:45:36.819Z,8.85
2024-02-29T01:46:13.383Z,8.82
2024-02-29T01:46:45.929Z,8.87
2024-02-29T01:47:20.273Z,8.86
2024-02-29T01:47:52.326Z,8.88
2024-02-29T01:48:25.104Z,8.88
2024-02-29T01:48:57.729Z,8.90
2024-02-29T01:49:29.954Z,8.89
2024-02-29T01:50:05.440Z,8.88
2024-02-29T01:50:38.850Z,8.90
2024-02-29T01:51:11.347Z,8.84
2024-02-29T01:51:44.760Z,8.86
2024-02-29T01:52:17.636Z,8.90
2024-02-29T01:52:50.040Z,8.91
2024-02-29T01:53:22.022Z,8.81
2024-02-29T01:53:53.978Z,8.83
2024-02-29T01:54:25.926Z,8.90
2024-02-29T01:55:00.491Z,8.92
2024-02-29T01:55:32.686Z,8.87
2024-02-29T01:56:04.997Z,8.87
2024-02-29T01:56:37.146Z,8.85
2024-02-29T01:57:10.276Z,8.80
2024-02-29T01:57:42.798Z,8.83
2024-02-29T01:58:14.993Z,8.82
2024-02-29T01:58:47.097Z,8.82
2024-02-29T01:59:19.172Z,8.83
2024-02-29T01:59:51.321Z,8.83
2024-02-29T02:00:23.290Z,8.87
2024-02-29T02:00:55.314Z,8.86
2024-02-29T02:01:27.676Z,8.80
2024-02-29T02:01:59.740Z,8.77
2024-02-29T02:02:31.738Z,8.78
2024-02-29T02:03:03.796Z,8.80
2024-02-29T02:03:35.909Z,8.77
2024-02-29T02:04:10.687Z,8.76
2024-02-29T02:04:42.637Z,8.81
2024-02-29T02:05:14.836Z,8.77
2024-02-29T02:05:46.737Z,8.80
2024-02-29T02:06:18.678Z,8.78
2024-02-29T02:06:50.654Z,8.77
2024-02-29T02:07:22.824Z,8.76
2024-02-29T02:07:54.956Z,8.74
2024-02-29T02:08:30.701Z,8.73
2024-02-29T02:09:03.007Z,8.71
2024-02-29T02:09:36.411Z,8.72
2024-02-29T02:10:11.777Z,8.74
2024-02-29T02:10:43.837Z,8.76
2024-02-29T02:11:15.869Z,8.74
2024-02-29T02:11:47.811Z,8.78
2024-02-29T02:12:20.383Z,8.77
2024-02-29T02:12:52.398Z,8.79
2024-02-29T02:13:24.522Z,8.76
2024-02-29T02:13:57.082Z,8.73
2024-02-29T02:14:29.185Z,8.69
2024-02-29T02:15:03.758Z,8.71
2024-02-29T02:15:35.748Z,8.73
2024-02-29T02:16:09.953Z,8.71
2024-02-29T02:16:42.250Z,8.73
2024-02-29T02:17:14.476Z,8.71
2024-02-29T02:17:46.491Z,8.70
2024-02-29T02:18:18.445Z,8.72
2024-02-29T02:18:50.368Z,8.69
2024-02-29T02:19:22.320Z,8.70
2024-02-29T02:19:54.251Z,8.73
2024-02-29T02:20:26.179Z,8.73
2024-02-29T02:20:58.209Z,8.73
2024-02-29T02:21:30.183Z,8.73
2024-02-29T02:22:05.416Z,8.69
2024-02-29T02:22:37.492Z,8.71
2024-02-29T02:23:09.597Z,8.73
2024-02-29T02:23:41.536Z,8.71
2024-02-29T02:24:13.454Z,8.70
2024-02-29T02:24:45.399Z,8.70
2024-02-29T02:25:18.013Z,8.72
2024-02-29T02:25:50.128Z,8.70
2024-02-29T02:26:22.048Z,8.70
2024-02-29T02:26:53.986Z,8.70
2024-02-29T02:27:25.908Z,8.70
2024-02-29T02:27:57.909Z,8.70
2024-02-29T02:28:30.576Z,8.71
2024-02-29T02:29:03.816Z,8.72
2024-02-29T02:29:35.733Z,8.68
2024-02-29T02:30:08.402Z,8.68
2024-02-29T02:30:40.827Z,8.71
2024-02-29T02:31:13.720Z,8.70
2024-02-29T02:31:45.733Z,8.67
2024-02-29T02:32:17.806Z,8.69
2024-02-29T02:32:49.759Z,8.71
2024-02-29T02:33:21.935Z,8.71
2024-02-29T02:33:53.869Z,8.69
2024-02-29T02:34:41.095Z,8.69
2024-02-29T02:36:05.795Z,8.65
2024-02-29T02:36:37.780Z,8.64
2024-02-29T02:37:09.885Z,8.65
2024-02-29T02:37:41.913Z,8.64
2024-02-29T02:38:14.166Z,8.64
2024-02-29T02:38:46.087Z,8.63
2024-02-29T02:39:18.065Z,8.63
2024-02-29T02:39:50.016Z,8.62
2024-02-29T02:40:21.977Z,8.65
2024-02-29T02:40:53.875Z,8.66
2024-02-29T02:41:25.898Z,8.61
2024-02-29T02:41:58.033Z,8.60
2024-02-29T02:42:29.959Z,8.59
2024-02-29T02:43:02.543Z,8.57
2024-02-29T02:43:34.621Z,8.62
2024-02-29T02:44:06.535Z,8.59
2024-02-29T02:44:38.460Z,8.61
2024-02-29T02:45:10.482Z,8.61
2024-02-29T02:45:42.410Z,8.60
2024-02-29T02:46:14.773Z,8.61
2024-02-29T02:46:46.705Z,8.60
2024-02-29T02:47:18.639Z,8.59
2024-02-29T02:47:50.576Z,8.57
2024-02-29T02:48:22.588Z,8.57
2024-02-29T02:48:54.519Z,8.61
2024-02-29T02:49:26.465Z,8.60
2024-02-29T02:49:58.382Z,8.61
2024-02-29T02:50:30.387Z,8.54
2024-02-29T02:51:02.383Z,8.54
2024-02-29T02:51:34.439Z,8.57
2024-02-29T02:52:06.413Z,8.53
2024-02-29T02:52:38.329Z,8.52
2024-02-29T02:53:10.247Z,8.54
2024-02-29T02:53:42.230Z,8.52
2024-02-29T02:54:14.198Z,8.53
2024-02-29T02:54:46.144Z,8.53
2024-02-29T02:55:18.100Z,8.51
2024-02-29T02:55:50.057Z,8.50
2024-02-29T02:56:21.975Z,8.50
2024-02-29T02:56:53.885Z,8.50
2024-02-29T02:57:25.798Z,8.46
2024-02-29T02:57:57.742Z,8.47
2024-02-29T02:58:29.698Z,8.43
2024-02-29T02:59:01.739Z,8.43
2024-02-29T02:59:35.934Z,8.40
2024-02-29T03:00:11.426Z,8.45
2024-02-29T03:00:43.411Z,8.43
2024-02-29T03:01:15.467Z,8.41
2024-02-29T03:01:47.514Z,8.46
2024-02-29T03:02:19.808Z,8.44
2024-02-29T03:02:52.413Z,8.47
2024-02-29T03:03:24.457Z,8.40
2024-02-29T03:03:56.919Z,8.42
2024-02-29T03:04:28.938Z,8.42
2024-02-29T03:05:00.878Z,8.40
2024-02-29T03:05:32.851Z,8.37
2024-02-29T03:06:05.001Z,8.41
2024-02-29T03:06:36.977Z,8.43
2024-02-29T03:07:08.996Z,8.43
2024-02-29T03:07:40.974Z,8.43
2024-02-29T03:08:15.342Z,8.43
2024-02-29T03:08:47.251Z,8.44
2024-02-29T03:09:19.176Z,8.44
2024-02-29T03:09:51.189Z,8.43
2024-02-29T03:10:23.258Z,8.44
2024-02-29T03:10:55.256Z,8.44
2024-02-29T03:11:27.422Z,8.42
2024-02-29T03:11:59.375Z,8.39
2024-02-29T03:12:31.311Z,8.38
2024-02-29T03:13:03.373Z,8.40
2024-02-29T03:13:35.338Z,8.42
2024-02-29T03:14:07.403Z,8.40
2024-02-29T03:14:39.357Z,8.40
2024-02-29T03:15:11.409Z,8.37
2024-02-29T03:15:43.384Z,8.37
2024-02-29T03:16:23.017Z,8.41
2024-02-29T03:16:55.099Z,8.39
2024-02-29T03:17:27.617Z,8.39
2024-02-29T03:17:59.712Z,8.38
2024-02-29T03:18:31.699Z,8.38
2024-02-29T03:19:06.139Z,8.38
2024-02-29T03:19:38.135Z,8.37
2024-02-29T03:20:13.565Z,8.39
2024-02-29T03:20:45.515Z,8.37
2024-02-29T03:21:17.530Z,8.36
2024-02-29T03:21:49.497Z,8.36
2024-02-29T03:22:21.520Z,8.36
2024-02-29T03:22:53.451Z,8.35
2024-02-29T03:23:25.561Z,8.36
2024-02-29T03:23:57.610Z,8.33
2024-02-29T03:24:29.523Z,8.31
2024-02-29T03:25:01.550Z,8.33
2024-02-29T03:25:33.501Z,8.33
2024-02-29T03:26:06.671Z,8.34
2024-02-29T03:26:38.654Z,8.32
2024-02-29T03:27:12.223Z,8.30
2024-02-29T03:27:44.230Z,8.33
2024-02-29T03:28:16.338Z,8.34
2024-02-29T03:28:48.436Z,8.33
2024-02-29T03:29:20.371Z,8.33
2024-02-29T03:29:52.955Z,8.34
2024-02-29T03:30:25.072Z,8.30
2024-02-29T03:30:58.077Z,8.29
2024-02-29T03:31:30.072Z,8.29
2024-02-29T03:32:02.155Z,8.28
2024-02-29T03:32:34.180Z,8.31
2024-02-29T03:33:06.272Z,8.31
2024-02-29T03:33:38.313Z,8.32
2024-02-29T03:34:10.602Z,8.29
2024-02-29T03:34:42.593Z,8.32
2024-02-29T03:35:14.564Z,8.31
2024-02-29T03:35:46.639Z,8.31
2024-02-29T03:36:18.595Z,8.27
2024-02-29T03:36:50.589Z,8.27
2024-02-29T03:37:22.739Z,8.25
2024-02-29T03:37:54.773Z,8.23
2024-02-29T03:38:26.706Z,8.22
2024-02-29T03:38:59.223Z,8.24
2024-02-29T03:39:31.306Z,8.20
2024-02-29T03:40:03.377Z,8.23
2024-02-29T03:40:35.343Z,8.25
2024-02-29T03:41:09.928Z,8.25
2024-02-29T03:41:41.873Z,8.25
2024-02-29T03:42:13.764Z,8.25
2024-02-29T03:42:45.796Z,8.22
2024-02-29T03:43:17.764Z,8.22
2024-02-29T03:43:49.726Z,8.22
2024-02-29T03:44:21.654Z,8.21
2024-02-29T03:44:57.702Z,8.23
2024-02-29T03:45:29.908Z,8.25
2024-02-29T03:46:02.975Z,8.25
2024-02-29T03:46:36.975Z,8.25
2024-02-29T03:47:09.084Z,8.27
2024-02-29T03:47:41.044Z,8.22
2024-02-29T03:48:13.035Z,8.23
2024-02-29T03:48:45.003Z,8.20
2024-02-29T03:49:17.227Z,8.21
2024-02-29T03:49:49.188Z,8.21
2024-02-29T03:50:21.181Z,8.22
2024-02-29T03:50:54.328Z,8.22
2024-02-29T03:51:26.918Z,8.22
2024-02-29T03:51:58.909Z,8.19
2024-02-29T03:52:30.876Z,8.20
2024-02-29T03:53:02.897Z,8.20
2024-02-29T03:53:34.843Z,8.23
2024-02-29T03:54:06.765Z,8.21
2024-02-29T03:54:38.734Z,8.18
2024-02-29T03:55:11.115Z,8.16
2024-02-29T03:55:44.887Z,8.18
2024-02-29T03:56:16.845Z,8.18
2024-02-29T03:56:48.845Z,8.22
2024-02-29T03:57:20.782Z,8.22
2024-02-29T03:57:53.152Z,8.17
2024-02-29T03:58:25.081Z,8.14
2024-02-29T03:58:56.991Z,8.16
2024-02-29T03:59:29.746Z,8.11
2024-02-29T04:00:01.678Z,8.11
2024-02-29T04:00:33.661Z,8.08
2024-02-29T04:01:06.746Z,8.11
2024-02-29T04:01:38.902Z,8.10
2024-02-29T04:02:10.962Z,8.10
2024-02-29T04:02:42.911Z,8.09
2024-02-29T04:03:15.112Z,8.11
2024-02-29T04:03:47.043Z,8.15
2024-02-29T04:04:20.256Z,8.16
2024-02-29T04:04:52.585Z,8.15
2024-02-29T04:05:25.760Z,8.13
2024-02-29T04:05:58.270Z,8.09
2024-02-29T04:06:30.201Z,8.06
2024-02-29T04:07:02.141Z,8.06
2024-02-29T04:07:35.318Z,8.10
2024-02-29T04:08:12.459Z,8.14
2024-02-29T04:08:44.503Z,8.14
2024-02-29T04:09:16.561Z,8.11
2024-02-29T04:09:48.462Z,8.08
2024-02-29T04:10:20.448Z,8.09
2024-02-29T04:10:52.424Z,8.10
2024-02-29T04:11:24.807Z,8.12
2024-02-29T04:11:56.756Z,8.11
2024-02-29T04:12:28.929Z,8.10
2024-02-29T04:13:01.402Z,8.11
2024-02-29T04:13:33.334Z,8.12
2024-02-29T04:14:06.196Z,8.15
2024-02-29T04:14:40.061Z,8.14
2024-02-29T04:15:12.222Z,8.11
2024-02-29T04:15:45.273Z,8.12
2024-02-29T04:16:19.347Z,8.16
2024-02-29T04:16:51.385Z,8.14
2024-02-29T04:17:23.329Z,8.10
2024-02-29T04:17:55.353Z,8.09
2024-02-29T04:18:27.298Z,8.06
2024-02-29T04:18:59.265Z,8.07
2024-02-29T04:19:31.746Z,8.08
2024-02-29T04:20:03.804Z,8.11
2024-02-29T04:20:35.722Z,8.11
2024-02-29T04:21:07.635Z,8.09
2024-02-29T04:21:47.179Z,8.07
2024-02-29T04:22:19.273Z,8.08
2024-02-29T04:22:51.285Z,8.07
2024-02-29T04:23:23.234Z,8.07
2024-02-29T04:23:55.135Z,8.05
2024-02-29T04:24:27.441Z,8.03
2024-02-29T04:24:59.394Z,8.04
2024-02-29T04:25:31.334Z,8.02
2024-02-29T04:26:03.890Z,8.02
2024-02-29T04:26:35.804Z,8.03
2024-02-29T04:27:08.132Z,7.97
2024-02-29T04:27:40.124Z,7.98
2024-02-29T04:28:12.987Z,7.98
2024-02-29T04:28:44.962Z,7.96
2024-02-29T04:29:16.873Z,8.00
2024-02-29T04:29:48.781Z,8.00
2024-02-29T04:30:20.738Z,7.99
2024-02-29T04:30:52.678Z,7.95
2024-02-29T04:31:24.701Z,7.97
2024-02-29T04:31:56.629Z,7.97
2024-02-29T04:32:28.553Z,7.99
2024-02-29T04:33:01.694Z,8.01
2024-02-29T04:33:33.980Z,7.96
2024-02-29T04:34:06.212Z,7.96
2024-02-29T04:34:38.319Z,7.90
2024-02-29T04:35:12.815Z,7.92
2024-02-29T04:35:44.815Z,7.95
2024-02-29T04:36:17.359Z,7.93
2024-02-29T04:36:49.309Z,7.96
2024-02-29T04:37:21.328Z,7.92
2024-02-29T04:37:53.247Z,7.96
2024-02-29T04:38:25.904Z,7.93
2024-02-29T04:38:57.824Z,7.86
2024-02-29T04:39:29.762Z,7.85
2024-02-29T04:40:01.842Z,7.85
2024-02-29T04:40:34.058Z,7.88
2024-02-29T04:41:05.992Z,7.87
2024-02-29T04:41:37.906Z,7.91
2024-02-29T04:42:09.845Z,7.94
2024-02-29T04:42:41.879Z,7.93
2024-02-29T04:43:13.990Z,7.90
2024-02-29T04:43:45.957Z,7.90
2024-02-29T04:44:17.984Z,7.92
2024-02-29T04:44:49.908Z,7.95
2024-02-29T04:45:24.591Z,7.95
2024-02-29T04:45:56.948Z,7.98
2024-02-29T04:46:28.892Z,7.95
2024-02-29T04:47:00.859Z,7.94
2024-02-29T04:47:32.826Z,7.96
2024-02-29T04:48:05.929Z,7.94
2024-02-29T04:48:37.943Z,7.90
2024-02-29T04:49:10.317Z,7.93
2024-02-29T04:49:42.274Z,7.94
2024-02-29T04:50:14.260Z,7.92
2024-02-29T04:50:46.290Z,7.90
2024-02-29T04:51:18.261Z,7.91
2024-02-29T04:51:50.423Z,7.88
2024-02-29T04:52:22.904Z,7.88
2024-02-29T04:52:56.364Z,7.89
2024-02-29T04:53:29.161Z,7.90
2024-02-29T04:54:03.723Z,7.89
2024-02-29T04:54:39.881Z,7.91
2024-02-29T04:55:12.144Z,7.91
2024-02-29T04:55:46.497Z,7.90
2024-02-29T04:56:18.480Z,7.89
2024-02-29T04:56:50.458Z,7.91
2024-02-29T04:57:22.362Z,7.89
2024-02-29T04:57:54.345Z,7.88
2024-02-29T04:58:26.452Z,7.85
2024-02-29T04:58:58.539Z,7.87
2024-02-29T04:59:33.943Z,7.89
2024-02-29T05:00:11.860Z,7.86
2024-02-29T05:00:49.139Z,7.83
2024-02-29T05:01:22.571Z,7.84
2024-02-29T05:01:55.063Z,7.87
2024-02-29T05:02:28.031Z,7.89
2024-02-29T05:03:00.139Z,7.86
2024-02-29T05:03:32.107Z,7.86
2024-02-29T05:04:04.834Z,7.86
2024-02-29T05:04:37.286Z,7.88
2024-02-29T05:05:11.937Z,7.86
2024-02-29T05:05:43.873Z,7.88
2024-02-29T05:06:18.199Z,7.88
2024-02-29T05:06:51.086Z,7.86
2024-02-29T05:07:23.362Z,7.83
2024-02-29T05:07:55.996Z,7.82
2024-02-29T05:08:29.482Z,7.86
2024-02-29T05:09:01.495Z,7.85
2024-02-29T05:09:33.915Z,7.85
2024-02-29T05:10:09.125Z,7.82
2024-02-29T05:10:41.235Z,7.80
2024-02-29T05:11:14.173Z,7.81
2024-02-29T05:11:46.651Z,7.81
2024-02-29T05:12:19.282Z,7.85
2024-02-29T05:12:56.987Z,7.79
2024-02-29T05:13:28.957Z,7.80
2024-02-29T05:14:03.214Z,7.85
2024-02-29T05:14:35.284Z,7.83
2024-02-29T05:15:07.865Z,7.80
2024-02-29T05:15:40.995Z,7.79
2024-02-29T05:16:16.432Z,7.80
2024-02-29T05:16:49.875Z,7.87
2024-02-29T05:17:22.975Z,7.88
2024-02-29T05:17:54.929Z,7.87
2024-02-29T05:18:29.010Z,7.84
2024-02-29T05:19:01.045Z,7.87
2024-02-29T05:19:33.357Z,7.85
2024-02-29T05:20:06.899Z,7.84
2024-02-29T05:20:39.956Z,7.83
2024-02-29T05:21:14.624Z,7.85
2024-02-29T05:21:48.373Z,7.87
2024-02-29T05:22:21.980Z,7.85
2024-02-29T05:22:55.202Z,7.85
2024-02-29T05:23:29.841Z,7.81
2024-02-29T05:24:02.957Z,7.79
2024-02-29T05:24:34.938Z,7.79
2024-02-29T05:25:09.391Z,7.75
2024-02-29T05:25:41.325Z,7.75
2024-02-29T05:26:13.454Z,7.79
2024-02-29T05:26:46.525Z,7.78
2024-02-29T05:27:20.702Z,7.69
2024-02-29T05:27:54.688Z,7.69
2024-02-29T05:28:27.539Z,7.73
2024-02-29T05:28:59.582Z,7.76
2024-02-29T05:29:32.856Z,7.72
2024-02-29T05:30:05.653Z,7.74
2024-02-29T05:30:37.578Z,7.69
2024-02-29T05:31:10.245Z,7.69
2024-02-29T05:31:42.277Z,7.75
2024-02-29T05:32:17.368Z,7.77
2024-02-29T05:32:50.485Z,7.76
2024-02-29T05:33:22.449Z,7.77
2024-02-29T05:33:54.378Z,7.73
2024-02-29T05:34:26.385Z,7.75
2024-02-29T05:34:58.402Z,7.74
2024-02-29T05:35:30.445Z,7.74
2024-02-29T05:36:02.714Z,7.73
2024-02-29T05:36:34.641Z,7.70
2024-02-29T05:37:06.650Z,7.70
2024-02-29T05:37:38.625Z,7.71
2024-02-29T05:38:10.588Z,7.73
2024-02-29T05:38:42.602Z,7.74
2024-02-29T05:39:14.528Z,7.73
2024-02-29T05:39:46.493Z,7.73
2024-02-29T05:40:18.641Z,7.75
2024-02-29T05:40:50.639Z,7.74
2024-02-29T05:41:22.593Z,7.75
2024-02-29T05:41:57.333Z,7.72
2024-02-29T05:42:29.662Z,7.75
2024-02-29T05:43:04.854Z,7.77
2024-02-29T05:43:37.384Z,7.78
2024-02-29T05:44:09.987Z,7.77
2024-02-29T05:44:41.956Z,7.78
2024-02-29T05:45:13.984Z,7.81
2024-02-29T05:45:45.960Z,7.79
2024-02-29T05:46:18.014Z,7.83
2024-02-29T05:46:50.011Z,7.84
2024-02-29T05:47:22.124Z,7.84
2024-02-29T05:47:54.125Z,7.82
2024-02-29T05:48:26.183Z,7.83
2024-02-29T05:48:58.797Z,7.80
2024-02-29T05:49:30.733Z,7.81
2024-02-29T05:50:02.658Z,7.81
2024-02-29T05:50:34.778Z,7.85
2024-02-29T05:51:08.730Z,7.82
2024-02-29T05:51:40.733Z,7.84
2024-02-29T05:52:12.757Z,7.85
2024-02-29T05:52:44.701Z,7.85
2024-02-29T05:53:16.632Z,7.83
2024-02-29T05:53:48.681Z,7.87
2024-02-29T05:54:20.691Z,7.84
2024-02-29T05:54:52.662Z,7.85
2024-02-29T05:55:24.641Z,7.86
2024-02-29T05:55:56.650Z,7.86
2024-02-29T05:56:28.556Z,7.86
2024-02-29T05:57:02.751Z,7.87
2024-02-29T05:57:36.461Z,7.87
2024-02-29T05:58:08.436Z,7.88
2024-02-29T05:58:40.544Z,7.88
2024-02-29T05:59:13.895Z,7.89
2024-02-29T05:59:45.888Z,7.88
2024-02-29T06:00:20.980Z,7.88
2024-02-29T06:00:53.457Z,7.82
2024-02-29T06:01:25.573Z,7.83
2024-02-29T06:01:57.631Z,7.83
2024-02-29T06:02:29.580Z,7.85
2024-02-29T06:03:01.670Z,7.86
2024-02-29T06:03:33.647Z,7.87
2024-02-29T06:04:05.963Z,7.85
2024-02-29T06:04:37.941Z,7.87
2024-02-29T06:05:10.161Z,7.91
2024-02-29T06:05:42.136Z,7.90
2024-02-29T06:06:16.653Z,7.89
2024-02-29T06:06:49.123Z,7.89
2024-02-29T06:07:21.070Z,7.89
2024-02-29T06:07:53.050Z,7.88
2024-02-29T06:08:24.985Z,7.89
2024-02-29T06:08:56.907Z,7.90
2024-02-29T06:09:28.897Z,7.91
2024-02-29T06:10:00.874Z,7.90
2024-02-29T06:10:32.909Z,7.91
2024-02-29T06:11:04.978Z,7.95
2024-02-29T06:11:36.921Z,7.95
2024-02-29T06:12:09.478Z,7.98
2024-02-29T06:12:41.409Z,7.97
2024-02-29T06:13:13.562Z,7.98
2024-02-29T06:13:45.902Z,7.99
2024-02-29T06:14:18.456Z,7.98
2024-02-29T06:14:50.385Z,7.97
2024-02-29T06:15:22.403Z,7.98
2024-02-29T06:15:54.384Z,7.99
2024-02-29T06:16:27.616Z,8.03
2024-02-29T06:16:59.703Z,8.04
2024-02-29T06:17:31.766Z,8.05
2024-02-29T06:18:03.730Z,8.05
2024-02-29T06:18:37.525Z,8.05
2024-02-29T06:19:09.499Z,8.07
2024-02-29T06:19:41.406Z,8.06
2024-02-29T06:20:13.826Z,8.09
2024-02-29T06:20:45.818Z,8.12
2024-02-29T06:21:17.742Z,8.14
2024-02-29T06:21:49.726Z,8.17
2024-02-29T06:22:24.075Z,8.15
2024-02-29T06:22:57.009Z,8.15
2024-02-29T06:23:29.161Z,8.18
2024-02-29T06:24:01.152Z,8.17
2024-02-29T06:24:33.079Z,8.17
2024-02-29T06:25:06.731Z,8.19
2024-02-29T06:25:38.958Z,8.18
2024-02-29T06:26:10.965Z,8.21
2024-02-29T06:26:42.896Z,8.22
2024-02-29T06:27:14.826Z,8.26
2024-02-29T06:27:46.820Z,8.25
2024-02-29T06:28:21.980Z,8.24
2024-02-29T06:28:56.025Z,8.27
2024-02-29T06:29:27.957Z,8.31
2024-02-29T06:29:59.910Z,8.32
2024-02-29T06:30:34.770Z,8.30
2024-02-29T06:31:07.343Z,8.32
2024-02-29T06:31:39.284Z,8.33
2024-02-29T06:32:11.181Z,8.34
2024-02-29T06:32:45.248Z,8.35
2024-02-29T06:33:17.343Z,8.39
2024-02-29T06:33:49.356Z,8.41
2024-02-29T06:34:21.632Z,8.42
2024-02-29T06:34:53.640Z,8.39
2024-02-29T06:35:25.780Z,8.41
2024-02-29T06:35:57.773Z,8.43
2024-02-29T06:36:29.769Z,8.46
2024-02-29T06:37:01.908Z,8.43
2024-02-29T06:37:33.872Z,8.44
2024-02-29T06:38:05.933Z,8.48
2024-02-29T06:38:37.879Z,8.51
2024-02-29T06:39:09.956Z,8.54
2024-02-29T06:39:41.896Z,8.55
2024-02-29T06:40:14.443Z,8.55
2024-02-29T06:40:47.539Z,8.57
2024-02-29T06:41:19.736Z,8.56
2024-02-29T06:41:51.662Z,8.56
2024-02-29T06:42:23.635Z,8.59
2024-02-29T06:42:55.621Z,8.61
2024-02-29T06:43:29.184Z,8.65
2024-02-29T06:44:04.256Z,8.67
2024-02-29T06:44:36.159Z,8.66
2024-02-29T06:45:08.541Z,8.69
2024-02-29T06:45:48.211Z,8.74
2024-02-29T06:46:20.248Z,8.73
2024-02-29T06:46:52.319Z,8.74
2024-02-29T06:47:24.302Z,8.73
2024-02-29T06:47:56.238Z,8.75
2024-02-29T06:48:28.285Z,8.71
2024-02-29T06:49:02.171Z,8.75
2024-02-29T06:49:34.128Z,8.81
2024-02-29T06:50:06.936Z,8.85
2024-02-29T06:50:38.880Z,8.87
2024-02-29T06:51:10.936Z,8.86
2024-02-29T06:51:42.895Z,8.86
2024-02-29T06:52:14.920Z,8.80
2024-02-29T06:52:47.929Z,8.85
2024-02-29T06:53:20.157Z,8.87
2024-02-29T06:53:52.113Z,8.91
2024-02-29T06:54:24.082Z,8.94
2024-02-29T06:54:56.061Z,8.93
2024-02-29T06:55:28.859Z,8.96
2024-02-29T06:56:00.856Z,8.98
2024-02-29T06:56:32.775Z,8.97
2024-02-29T06:57:04.802Z,9.04
2024-02-29T06:57:37.731Z,9.06
2024-02-29T06:58:09.846Z,9.09
2024-02-29T06:58:43.809Z,9.11
2024-02-29T06:59:15.755Z,9.15
2024-02-29T06:59:49.920Z,9.16
2024-02-29T07:00:23.104Z,9.13
2024-02-29T07:00:55.158Z,9.13
2024-02-29T07:01:28.216Z,9.10
2024-02-29T07:02:00.285Z,9.08
2024-02-29T07:02:32.951Z,9.19
2024-02-29T07:03:06.047Z,9.22
2024-02-29T07:03:38.037Z,9.18
2024-02-29T07:04:10.006Z,9.27
2024-02-29T07:04:42.020Z,9.32
2024-02-29T07:05:13.949Z,9.35
2024-02-29T07:05:46.753Z,9.37
2024-02-29T07:06:18.735Z,9.33
2024-02-29T07:06:50.698Z,9.37
2024-02-29T07:07:22.663Z,9.42
2024-02-29T07:07:55.895Z,9.43
2024-02-29T07:08:27.830Z,9.44
2024-02-29T07:08:59.750Z,9.46
2024-02-29T07:09:32.119Z,9.41
2024-02-29T07:10:06.302Z,9.48
2024-02-29T07:10:38.275Z,9.52
2024-02-29T07:11:13.098Z,9.54
2024-02-29T07:11:46.976Z,9.48
2024-02-29T07:12:18.945Z,9.53
2024-02-29T07:12:51.070Z,9.56
2024-02-29T07:13:23.126Z,9.54
2024-02-29T07:13:55.118Z,9.56